Alpine Light — V7UJ6 — position and weather

sailwx.info

Track history (hours):
 
Tides and Currents Weather Stations Pressure Air Temp Water Temp Dewpoint Dewpoint Depression Visibility Wind Speed Wind Dir Waves Ship Positions

Alpine Light

Last reported at 2017-Jan-13 02:11 UTC. Time now 2017-Jan-17 19:19 UTC.
Position S 09°43' E 147°06'.

Length 183 m; draft 8.6 m.

Type: Tanker. MMSI: 538003962.

Date/timePositionNaut miles runAvg speedWind from/ knotsBaromVisibWave heightAir tempDewpointWater temp
2017-Jan-13 02:11S 09°43' E 147°06'813.4
2017-Jan-13 01:33S 09°35' E 147°06'8 8.2
2017-Jan-13 00:33S 09°27' E 147°08'0 0.2
2017-Jan-12 23:28S 09°27' E 147°08'0 0.0
2017-Jan-12 22:28S 09°27' E 147°08'0 0.0
2017-Jan-12 21:28S 09°27' E 147°08'0 0.0
2017-Jan-12 20:31S 09°27' E 147°08'0 0.0
2017-Jan-12 19:28S 09°27' E 147°08'0 0.0
2017-Jan-12 18:22S 09°27' E 147°08'0 0.0
2017-Jan-12 17:25S 09°27' E 147°08'0 0.0
2017-Jan-12 16:10S 09°27' E 147°08'0 0.0
2017-Jan-12 15:28S 09°27' E 147°08'0 0.0
2017-Jan-12 14:28S 09°27' E 147°08'0 0.0
2017-Jan-12 12:22S 09°27' E 147°08'0 0.0
2017-Jan-12 11:31S 09°27' E 147°08'0 0.0
2017-Jan-12 10:28S 09°27' E 147°08'0 0.0
2017-Jan-12 09:28S 09°27' E 147°08'0 0.0
2017-Jan-12 08:31S 09°27' E 147°08'0 0.0
2017-Jan-12 07:31S 09°27' E 147°08'0 0.0
2017-Jan-12 06:28S 09°27' E 147°08'0 0.0
2017-Jan-12 05:28S 09°27' E 147°08'0 0.0
2017-Jan-12 04:16S 09°27' E 147°08'0 0.0
2017-Jan-12 03:28S 09°27' E 147°08'0 0.0
2017-Jan-12 02:25S 09°27' E 147°08'0 0.0
2017-Jan-12 01:28S 09°27' E 147°08'0 0.0
2017-Jan-12 00:25S 09°27' E 147°08'0 0.0
2017-Jan-11 23:31S 09°27' E 147°08'0 0.0
2017-Jan-11 22:13S 09°27' E 147°08'0 0.0
2017-Jan-11 21:22S 09°27' E 147°08'0 0.0
2017-Jan-11 20:28S 09°27' E 147°08'0 0.0
2017-Jan-11 19:28S 09°27' E 147°08'0 0.0
2017-Jan-11 18:22S 09°27' E 147°08'0 0.0
2017-Jan-11 17:28S 09°27' E 147°08'0 0.0
2017-Jan-11 16:31S 09°27' E 147°08'0 0.0
2017-Jan-11 15:31S 09°27' E 147°08'0 0.0
2017-Jan-11 14:31S 09°27' E 147°08'0 0.0
2017-Jan-11 13:28S 09°27' E 147°08'0 0.0
2017-Jan-11 12:28S 09°27' E 147°08'0 0.0
2017-Jan-11 11:28S 09°27' E 147°08'0 0.0
2017-Jan-11 10:31S 09°27' E 147°08'0 0.0
2017-Jan-11 09:31S 09°27' E 147°08'0 0.0
2017-Jan-11 08:28S 09°27' E 147°08'0 0.0
2017-Jan-11 07:28S 09°27' E 147°08'0 0.0
2017-Jan-11 06:31S 09°27' E 147°08'0 0.0
2017-Jan-11 05:28S 09°27' E 147°08'0 0.0
2017-Jan-11 03:28S 09°27' E 147°08'0 0.0
2017-Jan-11 02:04S 09°27' E 147°08'0 0.0
2017-Jan-11 01:22S 09°27' E 147°08'0 0.0
2017-Jan-10 23:31S 09°27' E 147°08'0 0.0
2017-Jan-10 22:16S 09°27' E 147°08'0 0.6
2017-Jan-10 21:33S 09°27' E 147°08'4 4.0
2017-Jan-10 20:33S 09°31' E 147°09'5 4.8
2017-Jan-10 19:33S 09°35' E 147°07'7 6.6
2017-Jan-10 18:31S 09°42' E 147°08'1 1.1
2017-Jan-10 17:33S 09°41' E 147°07'2 1.4
2017-Jan-10 16:26S 09°41' E 147°05'1 1.1
2017-Jan-10 15:29S 09°40' E 147°04'1 1.0
2017-Jan-10 14:31S 09°39' E 147°04'1 0.8
2017-Jan-10 13:24S 09°38' E 147°03'1 0.6
2017-Jan-10 12:26S 09°38' E 147°03'5 1.2
2017-Jan-10 08:12S 09°34' E 147°06'0 0.3
2017-Jan-10 07:33S 09°34' E 147°06'1 1.0
2017-Jan-10 06:30S 09°34' E 147°05'  
2017-Jan-06 11:09S 26°53' E 153°10'914.3
2017-Jan-06 10:33S 27°00' E 153°15'1312.8
2017-Jan-06 09:33S 27°12' E 153°21'1312.6
2017-Jan-06 08:33S 27°21' E 153°11'5 5.2
2017-Jan-06 07:33S 27°26' E 153°08'1 0.0
2017-Jan-04 17:31S 27°25' E 153°08'8 8.0
2017-Jan-04 16:33S 27°18' E 153°13'1211.8
2017-Jan-04 15:33S 27°09' E 153°21'1212.4
2017-Jan-04 14:33S 26°59' E 153°14'  
Track history (hours):
 
Tides and Currents Weather Stations Pressure Air Temp Water Temp Dewpoint Dewpoint Depression Visibility Wind Speed Wind Dir Waves Ship Positions

Alpine Light

Last reported at 2017-Jan-13 02:11 UTC. Time now 2017-Jan-17 19:19 UTC.
Position S 09°43' E 147°06'.

Length 183 m; draft 8.6 m.

Type: Tanker. MMSI: 538003962.

Date/timePositionNaut miles runAvg speedWind from/ knotsBaromVisibWave heightAir tempDewpointWater temp
2017-Jan-13 02:11S 09°43' E 147°06'813.4
2017-Jan-13 01:33S 09°35' E 147°06'8 8.2
2017-Jan-13 00:33S 09°27' E 147°08'0 0.2
2017-Jan-12 23:28S 09°27' E 147°08'0 0.0
2017-Jan-12 22:28S 09°27' E 147°08'0 0.0
2017-Jan-12 21:28S 09°27' E 147°08'0 0.0
2017-Jan-12 20:31S 09°27' E 147°08'0 0.0
2017-Jan-12 19:28S 09°27' E 147°08'0 0.0
2017-Jan-12 18:22S 09°27' E 147°08'0 0.0
2017-Jan-12 17:25S 09°27' E 147°08'0 0.0
2017-Jan-12 16:10S 09°27' E 147°08'0 0.0
2017-Jan-12 15:28S 09°27' E 147°08'0 0.0
2017-Jan-12 14:28S 09°27' E 147°08'0 0.0
2017-Jan-12 12:22S 09°27' E 147°08'0 0.0
2017-Jan-12 11:31S 09°27' E 147°08'0 0.0
2017-Jan-12 10:28S 09°27' E 147°08'0 0.0
2017-Jan-12 09:28S 09°27' E 147°08'0 0.0
2017-Jan-12 08:31S 09°27' E 147°08'0 0.0
2017-Jan-12 07:31S 09°27' E 147°08'0 0.0
2017-Jan-12 06:28S 09°27' E 147°08'0 0.0
2017-Jan-12 05:28S 09°27' E 147°08'0 0.0
2017-Jan-12 04:16S 09°27' E 147°08'0 0.0
2017-Jan-12 03:28S 09°27' E 147°08'0 0.0
2017-Jan-12 02:25S 09°27' E 147°08'0 0.0
2017-Jan-12 01:28S 09°27' E 147°08'0 0.0
2017-Jan-12 00:25S 09°27' E 147°08'0 0.0
2017-Jan-11 23:31S 09°27' E 147°08'0 0.0
2017-Jan-11 22:13S 09°27' E 147°08'0 0.0
2017-Jan-11 21:22S 09°27' E 147°08'0 0.0
2017-Jan-11 20:28S 09°27' E 147°08'0 0.0
2017-Jan-11 19:28S 09°27' E 147°08'0 0.0
2017-Jan-11 18:22S 09°27' E 147°08'0 0.0
2017-Jan-11 17:28S 09°27' E 147°08'0 0.0
2017-Jan-11 16:31S 09°27' E 147°08'0 0.0
2017-Jan-11 15:31S 09°27' E 147°08'0 0.0
2017-Jan-11 14:31S 09°27' E 147°08'0 0.0
2017-Jan-11 13:28S 09°27' E 147°08'0 0.0
2017-Jan-11 12:28S 09°27' E 147°08'0 0.0
2017-Jan-11 11:28S 09°27' E 147°08'0 0.0
2017-Jan-11 10:31S 09°27' E 147°08'0 0.0
2017-Jan-11 09:31S 09°27' E 147°08'0 0.0
2017-Jan-11 08:28S 09°27' E 147°08'0 0.0
2017-Jan-11 07:28S 09°27' E 147°08'0 0.0
2017-Jan-11 06:31S 09°27' E 147°08'0 0.0
2017-Jan-11 05:28S 09°27' E 147°08'0 0.0
2017-Jan-11 03:28S 09°27' E 147°08'0 0.0
2017-Jan-11 02:04S 09°27' E 147°08'0 0.0
2017-Jan-11 01:22S 09°27' E 147°08'0 0.0
2017-Jan-10 23:31S 09°27' E 147°08'0 0.0
2017-Jan-10 22:16S 09°27' E 147°08'0 0.6
2017-Jan-10 21:33S 09°27' E 147°08'4 4.0
2017-Jan-10 20:33S 09°31' E 147°09'5 4.8
2017-Jan-10 19:33S 09°35' E 147°07'7 6.6
2017-Jan-10 18:31S 09°42' E 147°08'1 1.1
2017-Jan-10 17:33S 09°41' E 147°07'2 1.4
2017-Jan-10 16:26S 09°41' E 147°05'1 1.1
2017-Jan-10 15:29S 09°40' E 147°04'1 1.0
2017-Jan-10 14:31S 09°39' E 147°04'1 0.8
2017-Jan-10 13:24S 09°38' E 147°03'1 0.6
2017-Jan-10 12:26S 09°38' E 147°03'5 1.2
2017-Jan-10 08:12S 09°34' E 147°06'0 0.3
2017-Jan-10 07:33S 09°34' E 147°06'1 1.0
2017-Jan-10 06:30S 09°34' E 147°05'  
2017-Jan-06 11:09S 26°53' E 153°10'914.3
2017-Jan-06 10:33S 27°00' E 153°15'1312.8
2017-Jan-06 09:33S 27°12' E 153°21'1312.6
2017-Jan-06 08:33S 27°21' E 153°11'5 5.2
2017-Jan-06 07:33S 27°26' E 153°08'1 0.0
2017-Jan-04 17:31S 27°25' E 153°08'8 8.0
2017-Jan-04 16:33S 27°18' E 153°13'1211.8
2017-Jan-04 15:33S 27°09' E 153°21'1212.4
2017-Jan-04 14:33S 26°59' E 153°14'  

Dump ship's entire track history